sensor_id;sensor_type;location;lat;lon;timestamp;P1;durP1;ratioP1;P2;durP2;ratioP2
11514;SDS011;5814;41.936;25.556;2022-07-30T00:01:07;7.32;;;6.62;;
11514;SDS011;5814;41.936;25.556;2022-07-30T00:03:34;7.00;;;6.32;;
11514;SDS011;5814;41.936;25.556;2022-07-30T00:06:01;6.80;;;6.35;;
11514;SDS011;5814;41.936;25.556;2022-07-30T00:08:29;7.93;;;7.28;;
11514;SDS011;5814;41.936;25.556;2022-07-30T00:10:56;7.70;;;7.10;;
11514;SDS011;5814;41.936;25.556;2022-07-30T00:13:23;7.68;;;7.28;;
11514;SDS011;5814;41.936;25.556;2022-07-30T00:15:50;8.43;;;7.82;;
11514;SDS011;5814;41.936;25.556;2022-07-30T00:18:17;8.65;;;8.00;;
11514;SDS011;5814;41.936;25.556;2022-07-30T00:20:45;7.72;;;7.10;;
11514;SDS011;5814;41.936;25.556;2022-07-30T00:23:12;7.43;;;6.87;;
11514;SDS011;5814;41.936;25.556;2022-07-30T00:25:39;7.18;;;6.70;;
11514;SDS011;5814;41.936;25.556;2022-07-30T00:28:06;7.22;;;6.82;;
11514;SDS011;5814;41.936;25.556;2022-07-30T00:30:33;7.18;;;6.68;;
11514;SDS011;5814;41.936;25.556;2022-07-30T00:33:00;7.62;;;6.95;;
11514;SDS011;5814;41.936;25.556;2022-07-30T00:35:27;7.25;;;6.70;;
11514;SDS011;5814;41.936;25.556;2022-07-30T00:37:55;9.27;;;7.07;;
11514;SDS011;5814;41.936;25.556;2022-07-30T00:40:22;9.73;;;7.40;;
11514;SDS011;5814;41.936;25.556;2022-07-30T00:42:49;7.35;;;6.78;;
11514;SDS011;5814;41.936;25.556;2022-07-30T00:45:16;8.00;;;7.50;;
11514;SDS011;5814;41.936;25.556;2022-07-30T00:47:44;8.18;;;7.53;;
11514;SDS011;5814;41.936;25.556;2022-07-30T00:50:11;7.28;;;6.60;;
11514;SDS011;5814;41.936;25.556;2022-07-30T00:52:38;6.87;;;6.45;;
11514;SDS011;5814;41.936;25.556;2022-07-30T00:55:06;7.25;;;6.65;;
11514;SDS011;5814;41.936;25.556;2022-07-30T00:57:33;7.47;;;6.80;;
11514;SDS011;5814;41.936;25.556;2022-07-30T01:00:00;7.40;;;6.72;;
11514;SDS011;5814;41.936;25.556;2022-07-30T01:02:27;8.68;;;8.18;;
11514;SDS011;5814;41.936;25.556;2022-07-30T01:04:54;8.48;;;7.85;;
11514;SDS011;5814;41.936;25.556;2022-07-30T01:07:22;8.60;;;7.90;;
11514;SDS011;5814;41.936;25.556;2022-07-30T01:09:49;8.27;;;7.72;;
11514;SDS011;5814;41.936;25.556;2022-07-30T01:12:18;8.32;;;7.72;;
11514;SDS011;5814;41.936;25.556;2022-07-30T01:14:43;8.27;;;7.65;;
11514;SDS011;5814;41.936;25.556;2022-07-30T01:17:10;7.95;;;7.35;;
11514;SDS011;5814;41.936;25.556;2022-07-30T01:19:38;7.70;;;7.20;;
11514;SDS011;5814;41.936;25.556;2022-07-30T01:22:15;7.62;;;7.05;;
11514;SDS011;5814;41.936;25.556;2022-07-30T01:24:40;7.57;;;7.10;;
11514;SDS011;5814;41.936;25.556;2022-07-30T01:27:06;7.57;;;7.07;;
11514;SDS011;5814;41.936;25.556;2022-07-30T01:29:33;8.38;;;7.70;;
11514;SDS011;5814;41.936;25.556;2022-07-30T01:32:01;8.82;;;8.02;;
11514;SDS011;5814;41.936;25.556;2022-07-30T01:34:28;8.57;;;7.85;;
11514;SDS011;5814;41.936;25.556;2022-07-30T01:36:56;8.20;;;7.72;;
11514;SDS011;5814;41.936;25.556;2022-07-30T01:39:22;8.63;;;8.15;;
11514;SDS011;5814;41.936;25.556;2022-07-30T01:41:49;8.95;;;8.45;;
11514;SDS011;5814;41.936;25.556;2022-07-30T01:44:16;9.70;;;9.10;;
11514;SDS011;5814;41.936;25.556;2022-07-30T01:46:44;8.98;;;8.48;;
11514;SDS011;5814;41.936;25.556;2022-07-30T01:49:11;9.32;;;8.73;;
11514;SDS011;5814;41.936;25.556;2022-07-30T01:51:38;9.05;;;8.45;;
11514;SDS011;5814;41.936;25.556;2022-07-30T01:54:07;8.30;;;7.62;;
11514;SDS011;5814;41.936;25.556;2022-07-30T01:56:33;7.90;;;7.40;;
11514;SDS011;5814;41.936;25.556;2022-07-30T01:59:00;7.15;;;6.70;;
11514;SDS011;5814;41.936;25.556;2022-07-30T02:01:27;8.20;;;7.53;;
11514;SDS011;5814;41.936;25.556;2022-07-30T02:03:55;8.32;;;7.85;;
11514;SDS011;5814;41.936;25.556;2022-07-30T02:06:23;7.75;;;7.25;;
11514;SDS011;5814;41.936;25.556;2022-07-30T02:08:51;8.07;;;7.57;;
11514;SDS011;5814;41.936;25.556;2022-07-30T02:11:17;8.23;;;7.80;;
11514;SDS011;5814;41.936;25.556;2022-07-30T02:13:46;7.75;;;7.25;;
11514;SDS011;5814;41.936;25.556;2022-07-30T02:16:16;8.52;;;8.02;;
11514;SDS011;5814;41.936;25.556;2022-07-30T02:18:47;7.53;;;6.93;;
11514;SDS011;5814;41.936;25.556;2022-07-30T02:21:14;8.48;;;7.97;;
11514;SDS011;5814;41.936;25.556;2022-07-30T02:23:42;8.30;;;7.55;;
11514;SDS011;5814;41.936;25.556;2022-07-30T02:26:08;8.48;;;7.90;;
11514;SDS011;5814;41.936;25.556;2022-07-30T02:28:36;9.30;;;8.50;;
11514;SDS011;5814;41.936;25.556;2022-07-30T02:31:02;8.13;;;7.60;;
11514;SDS011;5814;41.936;25.556;2022-07-30T02:33:33;8.60;;;7.90;;
11514;SDS011;5814;41.936;25.556;2022-07-30T02:35:57;10.93;;;10.18;;
11514;SDS011;5814;41.936;25.556;2022-07-30T02:38:25;12.20;;;11.10;;
11514;SDS011;5814;41.936;25.556;2022-07-30T02:40:51;10.45;;;9.70;;
11514;SDS011;5814;41.936;25.556;2022-07-30T02:43:18;8.05;;;7.57;;
11514;SDS011;5814;41.936;25.556;2022-07-30T02:45:45;9.55;;;8.85;;
11514;SDS011;5814;41.936;25.556;2022-07-30T02:48:13;8.93;;;8.32;;
11514;SDS011;5814;41.936;25.556;2022-07-30T02:50:40;9.70;;;9.10;;
11514;SDS011;5814;41.936;25.556;2022-07-30T02:53:08;8.75;;;8.00;;
11514;SDS011;5814;41.936;25.556;2022-07-30T02:55:35;9.75;;;9.15;;
11514;SDS011;5814;41.936;25.556;2022-07-30T02:58:03;9.20;;;8.57;;
11514;SDS011;5814;41.936;25.556;2022-07-30T03:00:29;12.95;;;12.02;;
11514;SDS011;5814;41.936;25.556;2022-07-30T03:02:56;9.15;;;8.55;;
11514;SDS011;5814;41.936;25.556;2022-07-30T03:05:25;12.35;;;10.73;;
11514;SDS011;5814;41.936;25.556;2022-07-30T03:07:52;10.40;;;9.70;;
11514;SDS011;5814;41.936;25.556;2022-07-30T03:10:18;9.90;;;8.98;;
11514;SDS011;5814;41.936;25.556;2022-07-30T03:12:45;8.52;;;7.78;;
11514;SDS011;5814;41.936;25.556;2022-07-30T03:15:12;8.75;;;8.15;;
11514;SDS011;5814;41.936;25.556;2022-07-30T03:17:42;8.63;;;8.05;;
11514;SDS011;5814;41.936;25.556;2022-07-30T03:20:10;8.20;;;7.70;;
11514;SDS011;5814;41.936;25.556;2022-07-30T03:22:39;13.73;;;9.70;;
11514;SDS011;5814;41.936;25.556;2022-07-30T03:25:06;12.30;;;11.20;;
11514;SDS011;5814;41.936;25.556;2022-07-30T03:27:34;10.75;;;10.05;;
11514;SDS011;5814;41.936;25.556;2022-07-30T03:30:01;9.68;;;9.13;;
11514;SDS011;5814;41.936;25.556;2022-07-30T03:32:29;9.88;;;9.18;;
11514;SDS011;5814;41.936;25.556;2022-07-30T03:34:56;11.75;;;9.32;;
11514;SDS011;5814;41.936;25.556;2022-07-30T03:37:24;8.73;;;8.02;;
11514;SDS011;5814;41.936;25.556;2022-07-30T03:39:50;9.38;;;8.77;;
11514;SDS011;5814;41.936;25.556;2022-07-30T03:42:18;11.40;;;9.25;;
11514;SDS011;5814;41.936;25.556;2022-07-30T03:44:45;15.15;;;13.85;;
11514;SDS011;5814;41.936;25.556;2022-07-30T03:47:12;11.38;;;10.43;;
11514;SDS011;5814;41.936;25.556;2022-07-30T03:49:39;11.90;;;10.80;;
11514;SDS011;5814;41.936;25.556;2022-07-30T03:52:06;12.93;;;11.60;;
11514;SDS011;5814;41.936;25.556;2022-07-30T03:54:33;14.10;;;12.95;;
11514;SDS011;5814;41.936;25.556;2022-07-30T03:57:01;14.10;;;12.70;;
11514;SDS011;5814;41.936;25.556;2022-07-30T03:59:28;12.20;;;11.20;;
11514;SDS011;5814;41.936;25.556;2022-07-30T04:01:59;13.52;;;10.93;;
11514;SDS011;5814;41.936;25.556;2022-07-30T04:04:26;12.02;;;10.98;;
11514;SDS011;5814;41.936;25.556;2022-07-30T04:06:53;12.32;;;11.32;;
11514;SDS011;5814;41.936;25.556;2022-07-30T04:09:20;14.65;;;11.27;;
11514;SDS011;5814;41.936;25.556;2022-07-30T04:11:47;12.23;;;11.23;;
11514;SDS011;5814;41.936;25.556;2022-07-30T04:14:14;12.65;;;11.35;;
11514;SDS011;5814;41.936;25.556;2022-07-30T04:16:43;17.17;;;15.55;;
11514;SDS011;5814;41.936;25.556;2022-07-30T04:19:11;10.98;;;10.10;;
11514;SDS011;5814;41.936;25.556;2022-07-30T04:21:38;14.48;;;12.98;;
11514;SDS011;5814;41.936;25.556;2022-07-30T04:24:05;13.27;;;12.30;;
11514;SDS011;5814;41.936;25.556;2022-07-30T04:26:33;11.85;;;10.80;;
11514;SDS011;5814;41.936;25.556;2022-07-30T04:28:59;11.10;;;9.85;;
11514;SDS011;5814;41.936;25.556;2022-07-30T04:31:27;16.23;;;14.82;;
11514;SDS011;5814;41.936;25.556;2022-07-30T04:33:54;12.50;;;11.60;;
11514;SDS011;5814;41.936;25.556;2022-07-30T04:36:21;12.05;;;10.95;;
11514;SDS011;5814;41.936;25.556;2022-07-30T04:38:48;10.57;;;9.68;;
11514;SDS011;5814;41.936;25.556;2022-07-30T04:41:15;9.98;;;9.18;;
11514;SDS011;5814;41.936;25.556;2022-07-30T04:43:42;9.23;;;8.43;;
11514;SDS011;5814;41.936;25.556;2022-07-30T04:46:09;10.55;;;8.65;;
11514;SDS011;5814;41.936;25.556;2022-07-30T04:48:37;9.23;;;8.00;;
11514;SDS011;5814;41.936;25.556;2022-07-30T04:51:04;9.07;;;8.20;;
11514;SDS011;5814;41.936;25.556;2022-07-30T04:53:31;9.25;;;8.55;;
11514;SDS011;5814;41.936;25.556;2022-07-30T04:55:58;9.73;;;8.75;;
11514;SDS011;5814;41.936;25.556;2022-07-30T04:58:25;10.35;;;9.25;;
11514;SDS011;5814;41.936;25.556;2022-07-30T05:00:53;9.05;;;8.20;;
11514;SDS011;5814;41.936;25.556;2022-07-30T05:03:20;9.65;;;8.75;;
11514;SDS011;5814;41.936;25.556;2022-07-30T05:05:47;17.25;;;15.70;;
11514;SDS011;5814;41.936;25.556;2022-07-30T05:08:14;11.88;;;10.68;;
11514;SDS011;5814;41.936;25.556;2022-07-30T05:10:42;14.85;;;10.68;;
11514;SDS011;5814;41.936;25.556;2022-07-30T05:13:10;11.48;;;9.30;;
11514;SDS011;5814;41.936;25.556;2022-07-30T05:15:36;11.32;;;9.75;;
11514;SDS011;5814;41.936;25.556;2022-07-30T05:18:03;11.75;;;10.55;;
11514;SDS011;5814;41.936;25.556;2022-07-30T05:20:31;14.48;;;12.70;;
11514;SDS011;5814;41.936;25.556;2022-07-30T05:22:58;19.73;;;13.62;;
11514;SDS011;5814;41.936;25.556;2022-07-30T05:25:25;13.77;;;10.13;;
11514;SDS011;5814;41.936;25.556;2022-07-30T05:27:52;12.57;;;11.52;;
11514;SDS011;5814;41.936;25.556;2022-07-30T05:30:20;15.85;;;14.52;;
11514;SDS011;5814;41.936;25.556;2022-07-30T05:32:47;14.68;;;13.38;;
11514;SDS011;5814;41.936;25.556;2022-07-30T05:35:14;16.05;;;14.75;;
11514;SDS011;5814;41.936;25.556;2022-07-30T05:37:41;13.35;;;12.40;;
11514;SDS011;5814;41.936;25.556;2022-07-30T05:40:09;13.85;;;12.45;;
11514;SDS011;5814;41.936;25.556;2022-07-30T05:42:36;15.13;;;13.88;;
11514;SDS011;5814;41.936;25.556;2022-07-30T05:45:04;14.65;;;13.32;;
11514;SDS011;5814;41.936;25.556;2022-07-30T05:47:32;15.98;;;14.68;;
11514;SDS011;5814;41.936;25.556;2022-07-30T05:49:59;15.52;;;13.98;;
11514;SDS011;5814;41.936;25.556;2022-07-30T05:52:26;15.38;;;13.32;;
11514;SDS011;5814;41.936;25.556;2022-07-30T05:54:53;15.43;;;13.77;;
11514;SDS011;5814;41.936;25.556;2022-07-30T05:57:21;16.55;;;14.85;;
11514;SDS011;5814;41.936;25.556;2022-07-30T05:59:48;15.90;;;14.10;;
11514;SDS011;5814;41.936;25.556;2022-07-30T06:02:15;12.88;;;11.75;;
11514;SDS011;5814;41.936;25.556;2022-07-30T06:04:42;12.95;;;11.85;;
11514;SDS011;5814;41.936;25.556;2022-07-30T06:07:09;11.93;;;10.82;;
11514;SDS011;5814;41.936;25.556;2022-07-30T06:09:36;13.62;;;12.63;;
11514;SDS011;5814;41.936;25.556;2022-07-30T06:12:04;13.27;;;11.98;;
11514;SDS011;5814;41.936;25.556;2022-07-30T06:14:31;16.75;;;15.43;;
11514;SDS011;5814;41.936;25.556;2022-07-30T06:16:58;22.27;;;20.10;;
11514;SDS011;5814;41.936;25.556;2022-07-30T06:19:25;27.55;;;24.65;;
11514;SDS011;5814;41.936;25.556;2022-07-30T06:21:52;29.37;;;26.50;;
11514;SDS011;5814;41.936;25.556;2022-07-30T06:24:19;39.15;;;30.35;;
11514;SDS011;5814;41.936;25.556;2022-07-30T06:26:47;24.42;;;22.15;;
11514;SDS011;5814;41.936;25.556;2022-07-30T06:29:14;24.92;;;22.52;;
11514;SDS011;5814;41.936;25.556;2022-07-30T06:31:41;21.67;;;19.48;;
11514;SDS011;5814;41.936;25.556;2022-07-30T06:34:08;21.40;;;19.25;;
11514;SDS011;5814;41.936;25.556;2022-07-30T06:36:35;18.37;;;16.52;;
11514;SDS011;5814;41.936;25.556;2022-07-30T06:39:02;15.98;;;14.48;;
11514;SDS011;5814;41.936;25.556;2022-07-30T06:41:30;14.35;;;13.35;;
11514;SDS011;5814;41.936;25.556;2022-07-30T06:43:57;20.10;;;17.87;;
11514;SDS011;5814;41.936;25.556;2022-07-30T06:46:24;14.77;;;13.55;;
11514;SDS011;5814;41.936;25.556;2022-07-30T06:48:51;15.60;;;14.50;;
11514;SDS011;5814;41.936;25.556;2022-07-30T06:51:18;13.60;;;12.45;;
11514;SDS011;5814;41.936;25.556;2022-07-30T06:53:45;15.77;;;14.30;;
11514;SDS011;5814;41.936;25.556;2022-07-30T06:56:13;12.55;;;11.50;;
11514;SDS011;5814;41.936;25.556;2022-07-30T06:58:40;13.35;;;12.10;;
11514;SDS011;5814;41.936;25.556;2022-07-30T07:01:07;15.05;;;13.65;;
11514;SDS011;5814;41.936;25.556;2022-07-30T07:03:34;12.73;;;11.73;;
11514;SDS011;5814;41.936;25.556;2022-07-30T07:06:01;15.32;;;13.73;;
11514;SDS011;5814;41.936;25.556;2022-07-30T07:08:28;15.98;;;14.55;;
11514;SDS011;5814;41.936;25.556;2022-07-30T07:10:56;15.65;;;14.35;;
11514;SDS011;5814;41.936;25.556;2022-07-30T07:13:23;14.35;;;13.25;;
11514;SDS011;5814;41.936;25.556;2022-07-30T07:15:50;13.98;;;12.88;;
11514;SDS011;5814;41.936;25.556;2022-07-30T07:18:17;13.95;;;12.75;;
11514;SDS011;5814;41.936;25.556;2022-07-30T07:20:44;12.80;;;11.20;;
11514;SDS011;5814;41.936;25.556;2022-07-30T07:23:12;11.75;;;9.80;;
11514;SDS011;5814;41.936;25.556;2022-07-30T07:25:39;11.43;;;10.32;;
11514;SDS011;5814;41.936;25.556;2022-07-30T07:28:06;12.75;;;11.52;;
11514;SDS011;5814;41.936;25.556;2022-07-30T07:30:33;12.60;;;11.55;;
11514;SDS011;5814;41.936;25.556;2022-07-30T07:33:00;10.48;;;9.35;;
11514;SDS011;5814;41.936;25.556;2022-07-30T07:35:27;8.60;;;7.90;;
11514;SDS011;5814;41.936;25.556;2022-07-30T07:37:55;10.05;;;9.20;;
11514;SDS011;5814;41.936;25.556;2022-07-30T07:40:22;11.68;;;8.70;;
11514;SDS011;5814;41.936;25.556;2022-07-30T07:42:49;9.15;;;8.40;;
11514;SDS011;5814;41.936;25.556;2022-07-30T07:45:16;8.43;;;7.87;;
11514;SDS011;5814;41.936;25.556;2022-07-30T07:47:45;12.05;;;7.62;;
11514;SDS011;5814;41.936;25.556;2022-07-30T07:50:12;7.20;;;6.50;;
11514;SDS011;5814;41.936;25.556;2022-07-30T07:52:39;6.55;;;5.93;;
11514;SDS011;5814;41.936;25.556;2022-07-30T07:55:07;6.30;;;5.70;;
11514;SDS011;5814;41.936;25.556;2022-07-30T07:57:37;6.45;;;5.78;;
11514;SDS011;5814;41.936;25.556;2022-07-30T08:00:05;6.25;;;5.85;;
11514;SDS011;5814;41.936;25.556;2022-07-30T08:02:32;6.32;;;5.82;;
11514;SDS011;5814;41.936;25.556;2022-07-30T08:05:00;6.10;;;5.70;;
11514;SDS011;5814;41.936;25.556;2022-07-30T08:07:27;6.57;;;5.50;;
11514;SDS011;5814;41.936;25.556;2022-07-30T08:09:54;5.55;;;5.15;;
11514;SDS011;5814;41.936;25.556;2022-07-30T08:12:21;6.93;;;5.07;;
11514;SDS011;5814;41.936;25.556;2022-07-30T08:14:48;6.05;;;5.25;;
11514;SDS011;5814;41.936;25.556;2022-07-30T08:17:16;5.72;;;5.35;;
11514;SDS011;5814;41.936;25.556;2022-07-30T08:19:43;5.93;;;5.43;;
11514;SDS011;5814;41.936;25.556;2022-07-30T08:22:10;5.97;;;5.57;;
11514;SDS011;5814;41.936;25.556;2022-07-30T08:24:37;6.30;;;5.80;;
11514;SDS011;5814;41.936;25.556;2022-07-30T08:27:04;7.10;;;6.18;;
11514;SDS011;5814;41.936;25.556;2022-07-30T08:29:31;5.50;;;5.10;;
11514;SDS011;5814;41.936;25.556;2022-07-30T08:31:58;5.50;;;5.05;;
11514;SDS011;5814;41.936;25.556;2022-07-30T08:34:26;5.47;;;5.18;;
11514;SDS011;5814;41.936;25.556;2022-07-30T08:36:53;6.22;;;5.82;;
11514;SDS011;5814;41.936;25.556;2022-07-30T08:39:20;5.90;;;5.53;;
11514;SDS011;5814;41.936;25.556;2022-07-30T08:41:47;5.72;;;5.22;;
11514;SDS011;5814;41.936;25.556;2022-07-30T08:44:15;6.10;;;5.70;;
11514;SDS011;5814;41.936;25.556;2022-07-30T08:46:42;5.55;;;5.05;;
11514;SDS011;5814;41.936;25.556;2022-07-30T08:49:09;6.15;;;5.43;;
11514;SDS011;5814;41.936;25.556;2022-07-30T08:51:36;5.62;;;5.32;;
11514;SDS011;5814;41.936;25.556;2022-07-30T08:54:03;5.65;;;5.18;;
11514;SDS011;5814;41.936;25.556;2022-07-30T08:56:31;5.75;;;5.35;;
11514;SDS011;5814;41.936;25.556;2022-07-30T08:58:59;5.68;;;5.15;;
11514;SDS011;5814;41.936;25.556;2022-07-30T09:01:26;5.90;;;5.57;;
11514;SDS011;5814;41.936;25.556;2022-07-30T09:03:53;5.97;;;5.53;;
11514;SDS011;5814;41.936;25.556;2022-07-30T09:06:20;6.30;;;5.80;;
11514;SDS011;5814;41.936;25.556;2022-07-30T09:08:47;5.80;;;5.35;;
11514;SDS011;5814;41.936;25.556;2022-07-30T09:11:14;5.70;;;5.30;;
11514;SDS011;5814;41.936;25.556;2022-07-30T09:13:42;5.82;;;5.43;;
11514;SDS011;5814;41.936;25.556;2022-07-30T09:18:43;6.30;;;5.68;;
11514;SDS011;5814;41.936;25.556;2022-07-30T09:21:14;6.82;;;6.22;;
11514;SDS011;5814;41.936;25.556;2022-07-30T09:23:53;6.55;;;6.07;;
11514;SDS011;5814;41.936;25.556;2022-07-30T09:26:23;5.95;;;5.65;;
11514;SDS011;5814;41.936;25.556;2022-07-30T09:28:51;6.43;;;5.97;;
11514;SDS011;5814;41.936;25.556;2022-07-30T09:31:18;6.90;;;5.95;;
11514;SDS011;5814;41.936;25.556;2022-07-30T09:33:46;6.72;;;6.12;;
11514;SDS011;5814;41.936;25.556;2022-07-30T09:36:14;6.28;;;5.87;;
11514;SDS011;5814;41.936;25.556;2022-07-30T09:38:41;5.95;;;5.65;;
11514;SDS011;5814;41.936;25.556;2022-07-30T09:41:11;6.60;;;6.20;;
11514;SDS011;5814;41.936;25.556;2022-07-30T09:43:40;6.65;;;6.15;;
11514;SDS011;5814;41.936;25.556;2022-07-30T09:46:07;8.07;;;7.47;;
11514;SDS011;5814;41.936;25.556;2022-07-30T09:48:34;5.50;;;5.00;;
11514;SDS011;5814;41.936;25.556;2022-07-30T09:51:01;6.00;;;5.60;;
11514;SDS011;5814;41.936;25.556;2022-07-30T09:53:28;6.03;;;5.72;;
11514;SDS011;5814;41.936;25.556;2022-07-30T09:55:55;6.45;;;6.12;;
11514;SDS011;5814;41.936;25.556;2022-07-30T09:58:23;6.07;;;5.78;;
11514;SDS011;5814;41.936;25.556;2022-07-30T10:00:52;6.35;;;6.05;;
11514;SDS011;5814;41.936;25.556;2022-07-30T10:03:20;6.30;;;5.75;;
11514;SDS011;5814;41.936;25.556;2022-07-30T10:05:51;5.85;;;5.55;;
11514;SDS011;5814;41.936;25.556;2022-07-30T10:08:17;6.15;;;5.78;;
11514;SDS011;5814;41.936;25.556;2022-07-30T10:10:45;7.03;;;6.53;;
11514;SDS011;5814;41.936;25.556;2022-07-30T10:13:12;5.72;;;5.43;;
11514;SDS011;5814;41.936;25.556;2022-07-30T10:15:39;5.80;;;5.35;;
11514;SDS011;5814;41.936;25.556;2022-07-30T10:18:06;6.12;;;5.72;;
11514;SDS011;5814;41.936;25.556;2022-07-30T10:20:33;6.22;;;5.72;;
11514;SDS011;5814;41.936;25.556;2022-07-30T10:23:00;5.62;;;5.22;;
11514;SDS011;5814;41.936;25.556;2022-07-30T10:25:27;5.80;;;5.50;;
11514;SDS011;5814;41.936;25.556;2022-07-30T10:27:55;6.12;;;5.78;;
11514;SDS011;5814;41.936;25.556;2022-07-30T10:30:22;6.78;;;6.20;;
11514;SDS011;5814;41.936;25.556;2022-07-30T10:32:49;6.65;;;5.53;;
11514;SDS011;5814;41.936;25.556;2022-07-30T10:35:16;6.15;;;5.78;;
11514;SDS011;5814;41.936;25.556;2022-07-30T10:37:44;6.20;;;5.72;;
11514;SDS011;5814;41.936;25.556;2022-07-30T10:40:13;6.32;;;6.03;;
11514;SDS011;5814;41.936;25.556;2022-07-30T10:43:16;6.20;;;5.80;;
11514;SDS011;5814;41.936;25.556;2022-07-30T10:48:19;6.10;;;5.70;;
11514;SDS011;5814;41.936;25.556;2022-07-30T10:50:49;5.68;;;5.37;;
11514;SDS011;5814;41.936;25.556;2022-07-30T10:53:52;5.60;;;5.30;;
11514;SDS011;5814;41.936;25.556;2022-07-30T10:56:10;6.32;;;5.93;;
11514;SDS011;5814;41.936;25.556;2022-07-30T11:01:16;6.03;;;5.72;;
11514;SDS011;5814;41.936;25.556;2022-07-30T11:03:43;6.40;;;5.95;;
11514;SDS011;5814;41.936;25.556;2022-07-30T11:08:53;5.43;;;5.12;;
11514;SDS011;5814;41.936;25.556;2022-07-30T11:14:02;6.20;;;5.80;;
11514;SDS011;5814;41.936;25.556;2022-07-30T11:17:02;6.22;;;5.80;;
11514;SDS011;5814;41.936;25.556;2022-07-30T11:19:28;5.72;;;5.43;;
11514;SDS011;5814;41.936;25.556;2022-07-30T11:27:08;5.57;;;5.28;;
11514;SDS011;5814;41.936;25.556;2022-07-30T11:29:35;6.10;;;5.80;;
11514;SDS011;5814;41.936;25.556;2022-07-30T11:38:07;6.07;;;5.72;;
11514;SDS011;5814;41.936;25.556;2022-07-30T11:40:36;6.28;;;5.70;;
11514;SDS011;5814;41.936;25.556;2022-07-30T11:45:49;6.35;;;5.78;;
11514;SDS011;5814;41.936;25.556;2022-07-30T11:48:17;5.90;;;5.50;;
11514;SDS011;5814;41.936;25.556;2022-07-30T11:50:44;6.43;;;5.85;;
11514;SDS011;5814;41.936;25.556;2022-07-30T11:53:15;5.72;;;5.43;;
11514;SDS011;5814;41.936;25.556;2022-07-30T11:55:41;6.12;;;5.72;;
11514;SDS011;5814;41.936;25.556;2022-07-30T11:58:09;6.28;;;5.95;;
11514;SDS011;5814;41.936;25.556;2022-07-30T12:00:38;6.18;;;5.87;;
11514;SDS011;5814;41.936;25.556;2022-07-30T12:03:07;5.57;;;5.25;;
11514;SDS011;5814;41.936;25.556;2022-07-30T12:05:34;6.05;;;5.75;;
11514;SDS011;5814;41.936;25.556;2022-07-30T12:08:01;5.65;;;5.35;;
11514;SDS011;5814;41.936;25.556;2022-07-30T12:10:28;6.18;;;5.78;;
11514;SDS011;5814;41.936;25.556;2022-07-30T12:13:05;6.30;;;5.80;;
11514;SDS011;5814;41.936;25.556;2022-07-30T12:15:34;6.55;;;6.10;;
11514;SDS011;5814;41.936;25.556;2022-07-30T12:18:00;6.30;;;5.90;;
11514;SDS011;5814;41.936;25.556;2022-07-30T12:20:28;6.57;;;6.07;;
11514;SDS011;5814;41.936;25.556;2022-07-30T12:22:55;6.32;;;6.00;;
11514;SDS011;5814;41.936;25.556;2022-07-30T12:25:22;6.57;;;6.18;;
11514;SDS011;5814;41.936;25.556;2022-07-30T12:27:49;6.90;;;6.40;;
11514;SDS011;5814;41.936;25.556;2022-07-30T12:30:17;6.80;;;6.43;;
11514;SDS011;5814;41.936;25.556;2022-07-30T12:32:44;6.82;;;6.50;;
11514;SDS011;5814;41.936;25.556;2022-07-30T12:35:11;7.22;;;6.72;;
11514;SDS011;5814;41.936;25.556;2022-07-30T12:37:38;6.80;;;6.30;;
11514;SDS011;5814;41.936;25.556;2022-07-30T12:40:09;6.80;;;6.50;;
11514;SDS011;5814;41.936;25.556;2022-07-30T12:42:36;7.55;;;7.03;;
11514;SDS011;5814;41.936;25.556;2022-07-30T12:45:04;7.62;;;7.05;;
11514;SDS011;5814;41.936;25.556;2022-07-30T12:47:31;7.30;;;6.90;;
11514;SDS011;5814;41.936;25.556;2022-07-30T12:49:59;7.35;;;6.95;;
11514;SDS011;5814;41.936;25.556;2022-07-30T12:52:27;6.85;;;6.55;;
11514;SDS011;5814;41.936;25.556;2022-07-30T12:55:00;6.95;;;6.55;;
11514;SDS011;5814;41.936;25.556;2022-07-30T13:00:18;7.22;;;6.82;;
11514;SDS011;5814;41.936;25.556;2022-07-30T13:02:45;7.10;;;6.57;;
11514;SDS011;5814;41.936;25.556;2022-07-30T13:05:12;7.10;;;6.35;;
11514;SDS011;5814;41.936;25.556;2022-07-30T13:10:19;6.82;;;6.37;;
11514;SDS011;5814;41.936;25.556;2022-07-30T13:12:46;7.43;;;6.93;;
11514;SDS011;5814;41.936;25.556;2022-07-30T13:15:17;7.32;;;6.68;;
11514;SDS011;5814;41.936;25.556;2022-07-30T13:17:43;7.60;;;7.20;;
11514;SDS011;5814;41.936;25.556;2022-07-30T13:20:11;7.32;;;6.90;;
11514;SDS011;5814;41.936;25.556;2022-07-30T13:22:38;7.57;;;7.07;;
11514;SDS011;5814;41.936;25.556;2022-07-30T13:25:05;7.32;;;6.93;;
11514;SDS011;5814;41.936;25.556;2022-07-30T13:27:33;7.78;;;7.28;;
11514;SDS011;5814;41.936;25.556;2022-07-30T13:30:00;8.13;;;7.55;;
11514;SDS011;5814;41.936;25.556;2022-07-30T13:32:27;7.55;;;7.05;;
11514;SDS011;5814;41.936;25.556;2022-07-30T13:34:54;7.45;;;7.05;;
11514;SDS011;5814;41.936;25.556;2022-07-30T13:37:21;7.10;;;6.30;;
11514;SDS011;5814;41.936;25.556;2022-07-30T13:39:49;7.10;;;6.60;;
11514;SDS011;5814;41.936;25.556;2022-07-30T13:42:16;6.93;;;6.53;;
11514;SDS011;5814;41.936;25.556;2022-07-30T13:44:44;7.00;;;6.60;;
11514;SDS011;5814;41.936;25.556;2022-07-30T13:47:11;7.25;;;6.85;;
11514;SDS011;5814;41.936;25.556;2022-07-30T13:49:38;7.57;;;7.18;;
11514;SDS011;5814;41.936;25.556;2022-07-30T13:52:05;8.00;;;7.20;;
11514;SDS011;5814;41.936;25.556;2022-07-30T13:54:32;7.50;;;7.00;;
11514;SDS011;5814;41.936;25.556;2022-07-30T13:56:59;7.45;;;6.95;;
11514;SDS011;5814;41.936;25.556;2022-07-30T13:59:27;7.80;;;7.18;;
11514;SDS011;5814;41.936;25.556;2022-07-30T14:01:54;8.30;;;7.65;;
11514;SDS011;5814;41.936;25.556;2022-07-30T14:04:21;7.82;;;7.32;;
11514;SDS011;5814;41.936;25.556;2022-07-30T14:06:48;7.85;;;7.25;;
11514;SDS011;5814;41.936;25.556;2022-07-30T14:09:15;7.65;;;7.25;;
11514;SDS011;5814;41.936;25.556;2022-07-30T14:11:42;8.02;;;7.43;;
11514;SDS011;5814;41.936;25.556;2022-07-30T14:14:09;8.05;;;7.47;;
11514;SDS011;5814;41.936;25.556;2022-07-30T14:16:37;8.32;;;7.70;;
11514;SDS011;5814;41.936;25.556;2022-07-30T14:19:04;8.35;;;7.60;;
11514;SDS011;5814;41.936;25.556;2022-07-30T14:21:31;7.82;;;7.37;;
11514;SDS011;5814;41.936;25.556;2022-07-30T14:23:58;8.18;;;7.62;;
11514;SDS011;5814;41.936;25.556;2022-07-30T14:26:26;8.13;;;7.43;;
11514;SDS011;5814;41.936;25.556;2022-07-30T14:28:53;8.10;;;7.70;;
11514;SDS011;5814;41.936;25.556;2022-07-30T14:31:20;7.47;;;7.07;;
11514;SDS011;5814;41.936;25.556;2022-07-30T14:33:47;7.62;;;7.18;;
11514;SDS011;5814;41.936;25.556;2022-07-30T14:36:14;7.82;;;7.22;;
11514;SDS011;5814;41.936;25.556;2022-07-30T14:38:41;7.75;;;7.22;;
11514;SDS011;5814;41.936;25.556;2022-07-30T14:41:09;8.15;;;7.12;;
11514;SDS011;5814;41.936;25.556;2022-07-30T14:43:36;7.68;;;7.20;;
11514;SDS011;5814;41.936;25.556;2022-07-30T14:46:03;7.50;;;6.90;;
11514;SDS011;5814;41.936;25.556;2022-07-30T14:48:30;8.57;;;7.78;;
11514;SDS011;5814;41.936;25.556;2022-07-30T14:50:57;8.15;;;7.53;;
11514;SDS011;5814;41.936;25.556;2022-07-30T14:53:24;7.82;;;7.40;;
11514;SDS011;5814;41.936;25.556;2022-07-30T14:55:51;8.15;;;7.50;;
11514;SDS011;5814;41.936;25.556;2022-07-30T14:58:19;8.05;;;7.60;;
11514;SDS011;5814;41.936;25.556;2022-07-30T15:00:46;8.30;;;7.85;;
11514;SDS011;5814;41.936;25.556;2022-07-30T15:03:13;7.43;;;7.12;;
11514;SDS011;5814;41.936;25.556;2022-07-30T15:05:40;7.90;;;7.50;;
11514;SDS011;5814;41.936;25.556;2022-07-30T15:08:07;7.68;;;7.28;;
11514;SDS011;5814;41.936;25.556;2022-07-30T15:10:34;7.70;;;7.20;;
11514;SDS011;5814;41.936;25.556;2022-07-30T15:13:02;7.95;;;7.55;;
11514;SDS011;5814;41.936;25.556;2022-07-30T15:15:29;8.27;;;7.50;;